sensor_id;sensor_type;location;lat;lon;timestamp;temperature;humidity
24686;DHT22;12804;51.176;4.452;2023-04-24T00:00:56;10.10;99.90
24686;DHT22;12804;51.176;4.452;2023-04-24T00:03:27;10.00;99.90
24686;DHT22;12804;51.176;4.452;2023-04-24T00:05:54;10.00;99.90
24686;DHT22;12804;51.176;4.452;2023-04-24T00:08:20;10.10;99.90
24686;DHT22;12804;51.176;4.452;2023-04-24T00:10:46;10.10;99.90
24686;DHT22;12804;51.176;4.452;2023-04-24T00:13:12;10.10;99.90
24686;DHT22;12804;51.176;4.452;2023-04-24T00:15:38;10.10;99.90
24686;DHT22;12804;51.176;4.452;2023-04-24T00:18:04;10.10;99.90
24686;DHT22;12804;51.176;4.452;2023-04-24T00:20:30;10.10;99.90
24686;DHT22;12804;51.176;4.452;2023-04-24T00:22:58;10.20;99.90
24686;DHT22;12804;51.176;4.452;2023-04-24T00:25:23;10.20;99.90
24686;DHT22;12804;51.176;4.452;2023-04-24T00:27:49;10.30;99.90
24686;DHT22;12804;51.176;4.452;2023-04-24T00:30:15;10.30;99.90
24686;DHT22;12804;51.176;4.452;2023-04-24T00:32:41;10.30;99.90
24686;DHT22;12804;51.176;4.452;2023-04-24T00:35:07;10.30;99.90
24686;DHT22;12804;51.176;4.452;2023-04-24T00:37:33;10.40;99.90
24686;DHT22;12804;51.176;4.452;2023-04-24T00:39:59;10.30;99.90
24686;DHT22;12804;51.176;4.452;2023-04-24T00:42:25;10.20;99.90
24686;DHT22;12804;51.176;4.452;2023-04-24T00:44:52;10.30;99.90
24686;DHT22;12804;51.176;4.452;2023-04-24T00:47:19;10.20;99.90
24686;DHT22;12804;51.176;4.452;2023-04-24T00:49:45;10.40;99.90
24686;DHT22;12804;51.176;4.452;2023-04-24T00:52:11;10.40;99.90
24686;DHT22;12804;51.176;4.452;2023-04-24T00:54:37;10.30;99.90
24686;DHT22;12804;51.176;4.452;2023-04-24T00:57:04;10.40;99.90
24686;DHT22;12804;51.176;4.452;2023-04-24T00:59:30;10.40;99.90
24686;DHT22;12804;51.176;4.452;2023-04-24T01:01:57;10.30;99.90
24686;DHT22;12804;51.176;4.452;2023-04-24T01:04:23;10.10;99.90
24686;DHT22;12804;51.176;4.452;2023-04-24T01:06:50;10.00;99.90
24686;DHT22;12804;51.176;4.452;2023-04-24T01:09:16;10.00;99.90
24686;DHT22;12804;51.176;4.452;2023-04-24T01:11:42;10.00;99.90
24686;DHT22;12804;51.176;4.452;2023-04-24T01:14:09;9.90;99.90
24686;DHT22;12804;51.176;4.452;2023-04-24T01:16:35;9.90;99.90
24686;DHT22;12804;51.176;4.452;2023-04-24T01:19:05;9.90;99.90
24686;DHT22;12804;51.176;4.452;2023-04-24T01:21:36;9.90;99.90
24686;DHT22;12804;51.176;4.452;2023-04-24T01:24:04;9.90;99.90
24686;DHT22;12804;51.176;4.452;2023-04-24T01:26:30;9.90;99.90
24686;DHT22;12804;51.176;4.452;2023-04-24T01:28:56;9.80;99.90
24686;DHT22;12804;51.176;4.452;2023-04-24T01:31:22;9.70;99.90
24686;DHT22;12804;51.176;4.452;2023-04-24T01:33:48;9.70;99.90
24686;DHT22;12804;51.176;4.452;2023-04-24T01:36:16;9.80;99.90
24686;DHT22;12804;51.176;4.452;2023-04-24T01:38:43;9.80;99.90
24686;DHT22;12804;51.176;4.452;2023-04-24T01:41:10;9.90;99.90
24686;DHT22;12804;51.176;4.452;2023-04-24T01:43:36;9.80;99.90
24686;DHT22;12804;51.176;4.452;2023-04-24T01:46:02;9.90;99.90
24686;DHT22;12804;51.176;4.452;2023-04-24T01:48:28;9.80;99.90
24686;DHT22;12804;51.176;4.452;2023-04-24T01:50:54;9.90;99.90
24686;DHT22;12804;51.176;4.452;2023-04-24T01:53:20;9.90;99.90
24686;DHT22;12804;51.176;4.452;2023-04-24T01:55:46;10.00;99.90
24686;DHT22;12804;51.176;4.452;2023-04-24T01:58:12;9.80;99.90
24686;DHT22;12804;51.176;4.452;2023-04-24T02:00:38;9.80;99.90
24686;DHT22;12804;51.176;4.452;2023-04-24T02:03:04;9.80;99.90
24686;DHT22;12804;51.176;4.452;2023-04-24T02:05:30;9.80;99.90
24686;DHT22;12804;51.176;4.452;2023-04-24T02:07:56;9.80;99.90
24686;DHT22;12804;51.176;4.452;2023-04-24T02:10:22;9.80;99.90
24686;DHT22;12804;51.176;4.452;2023-04-24T02:12:48;9.80;99.90
24686;DHT22;12804;51.176;4.452;2023-04-24T02:15:14;9.90;99.90
24686;DHT22;12804;51.176;4.452;2023-04-24T02:17:40;10.00;99.90
24686;DHT22;12804;51.176;4.452;2023-04-24T02:20:07;10.10;99.90
24686;DHT22;12804;51.176;4.452;2023-04-24T02:22:32;10.00;99.90
24686;DHT22;12804;51.176;4.452;2023-04-24T02:25:01;9.90;99.90
24686;DHT22;12804;51.176;4.452;2023-04-24T02:27:27;10.00;99.90
24686;DHT22;12804;51.176;4.452;2023-04-24T02:29:53;10.00;99.90
24686;DHT22;12804;51.176;4.452;2023-04-24T02:32:18;9.90;99.90
24686;DHT22;12804;51.176;4.452;2023-04-24T02:34:44;9.90;99.90
24686;DHT22;12804;51.176;4.452;2023-04-24T02:37:11;9.90;99.90
24686;DHT22;12804;51.176;4.452;2023-04-24T02:39:37;9.70;99.90
24686;DHT22;12804;51.176;4.452;2023-04-24T02:42:03;9.70;99.90
24686;DHT22;12804;51.176;4.452;2023-04-24T02:44:29;9.60;99.90
24686;DHT22;12804;51.176;4.452;2023-04-24T02:46:55;9.50;99.90
24686;DHT22;12804;51.176;4.452;2023-04-24T02:49:22;9.50;99.90
24686;DHT22;12804;51.176;4.452;2023-04-24T02:51:48;9.60;99.90
24686;DHT22;12804;51.176;4.452;2023-04-24T02:54:14;9.60;99.90
24686;DHT22;12804;51.176;4.452;2023-04-24T02:56:40;9.50;99.90
24686;DHT22;12804;51.176;4.452;2023-04-24T02:59:07;9.50;99.90
24686;DHT22;12804;51.176;4.452;2023-04-24T03:01:33;9.30;99.90
24686;DHT22;12804;51.176;4.452;2023-04-24T03:03:59;9.30;99.90
24686;DHT22;12804;51.176;4.452;2023-04-24T03:06:25;9.40;99.90
24686;DHT22;12804;51.176;4.452;2023-04-24T03:08:52;9.40;99.90
24686;DHT22;12804;51.176;4.452;2023-04-24T03:11:18;9.30;99.90
24686;DHT22;12804;51.176;4.452;2023-04-24T03:13:44;9.30;99.90
24686;DHT22;12804;51.176;4.452;2023-04-24T03:16:10;9.20;99.90
24686;DHT22;12804;51.176;4.452;2023-04-24T03:18:36;9.30;99.90
24686;DHT22;12804;51.176;4.452;2023-04-24T03:21:03;9.30;99.90
24686;DHT22;12804;51.176;4.452;2023-04-24T03:23:30;9.20;99.90
24686;DHT22;12804;51.176;4.452;2023-04-24T03:25:56;9.20;99.90
24686;DHT22;12804;51.176;4.452;2023-04-24T03:28:22;9.30;99.90
24686;DHT22;12804;51.176;4.452;2023-04-24T03:30:56;9.40;99.90
24686;DHT22;12804;51.176;4.452;2023-04-24T03:33:23;9.30;99.90
24686;DHT22;12804;51.176;4.452;2023-04-24T03:36:00;9.30;99.90
24686;DHT22;12804;51.176;4.452;2023-04-24T03:38:30;9.30;99.90
24686;DHT22;12804;51.176;4.452;2023-04-24T03:41:17;9.30;99.90
24686;DHT22;12804;51.176;4.452;2023-04-24T03:43:49;9.30;99.90
24686;DHT22;12804;51.176;4.452;2023-04-24T03:46:15;9.30;99.90
24686;DHT22;12804;51.176;4.452;2023-04-24T03:48:47;9.30;99.90
24686;DHT22;12804;51.176;4.452;2023-04-24T03:51:14;9.20;99.90
24686;DHT22;12804;51.176;4.452;2023-04-24T03:53:44;9.30;99.90
24686;DHT22;12804;51.176;4.452;2023-04-24T03:56:12;9.20;99.90
24686;DHT22;12804;51.176;4.452;2023-04-24T03:58:37;9.20;99.90
24686;DHT22;12804;51.176;4.452;2023-04-24T04:01:04;9.10;99.90
24686;DHT22;12804;51.176;4.452;2023-04-24T04:03:54;9.10;99.90
24686;DHT22;12804;51.176;4.452;2023-04-24T04:06:23;9.20;99.90
24686;DHT22;12804;51.176;4.452;2023-04-24T04:08:50;9.30;99.90
24686;DHT22;12804;51.176;4.452;2023-04-24T04:11:16;9.40;99.90
24686;DHT22;12804;51.176;4.452;2023-04-24T04:13:44;9.30;99.90
24686;DHT22;12804;51.176;4.452;2023-04-24T04:16:11;9.20;99.90
24686;DHT22;12804;51.176;4.452;2023-04-24T04:18:37;9.20;99.90
24686;DHT22;12804;51.176;4.452;2023-04-24T04:21:05;9.20;99.90
24686;DHT22;12804;51.176;4.452;2023-04-24T04:23:31;9.20;99.90
24686;DHT22;12804;51.176;4.452;2023-04-24T04:26:09;9.20;99.90
24686;DHT22;12804;51.176;4.452;2023-04-24T04:29:03;9.30;99.90
24686;DHT22;12804;51.176;4.452;2023-04-24T04:31:30;9.20;99.90
24686;DHT22;12804;51.176;4.452;2023-04-24T04:33:59;9.20;99.90
24686;DHT22;12804;51.176;4.452;2023-04-24T04:36:28;9.10;99.90
24686;DHT22;12804;51.176;4.452;2023-04-24T04:39:01;8.90;99.90
24686;DHT22;12804;51.176;4.452;2023-04-24T04:41:51;8.90;99.90
24686;DHT22;12804;51.176;4.452;2023-04-24T04:44:19;8.90;99.90
24686;DHT22;12804;51.176;4.452;2023-04-24T04:46:45;9.00;99.90
24686;DHT22;12804;51.176;4.452;2023-04-24T04:49:22;9.00;99.90
24686;DHT22;12804;51.176;4.452;2023-04-24T04:51:50;9.10;99.90
24686;DHT22;12804;51.176;4.452;2023-04-24T04:54:17;9.00;99.90
24686;DHT22;12804;51.176;4.452;2023-04-24T04:56:43;8.90;99.90
24686;DHT22;12804;51.176;4.452;2023-04-24T04:59:09;8.80;99.90
24686;DHT22;12804;51.176;4.452;2023-04-24T05:01:37;8.80;99.90
24686;DHT22;12804;51.176;4.452;2023-04-24T05:04:05;8.80;99.90
24686;DHT22;12804;51.176;4.452;2023-04-24T05:06:31;8.70;99.90
24686;DHT22;12804;51.176;4.452;2023-04-24T05:08:57;8.60;99.90
24686;DHT22;12804;51.176;4.452;2023-04-24T05:11:50;8.70;99.90
24686;DHT22;12804;51.176;4.452;2023-04-24T05:14:16;8.70;99.90
24686;DHT22;12804;51.176;4.452;2023-04-24T05:16:43;8.80;99.90
24686;DHT22;12804;51.176;4.452;2023-04-24T05:19:11;8.70;99.90
24686;DHT22;12804;51.176;4.452;2023-04-24T05:21:40;8.70;99.90
24686;DHT22;12804;51.176;4.452;2023-04-24T05:24:07;8.80;99.90
24686;DHT22;12804;51.176;4.452;2023-04-24T05:26:58;8.60;99.90
24686;DHT22;12804;51.176;4.452;2023-04-24T05:29:29;8.70;99.90
24686;DHT22;12804;51.176;4.452;2023-04-24T05:31:57;8.70;99.90
24686;DHT22;12804;51.176;4.452;2023-04-24T05:34:24;8.60;99.90
24686;DHT22;12804;51.176;4.452;2023-04-24T05:36:54;8.50;99.90
24686;DHT22;12804;51.176;4.452;2023-04-24T05:39:20;8.50;99.90
24686;DHT22;12804;51.176;4.452;2023-04-24T05:41:46;8.50;99.90
24686;DHT22;12804;51.176;4.452;2023-04-24T05:44:12;8.60;99.90
24686;DHT22;12804;51.176;4.452;2023-04-24T05:46:37;8.50;99.90
24686;DHT22;12804;51.176;4.452;2023-04-24T05:49:03;8.50;99.90
24686;DHT22;12804;51.176;4.452;2023-04-24T05:51:31;8.70;99.90
24686;DHT22;12804;51.176;4.452;2023-04-24T05:53:57;8.60;99.90
24686;DHT22;12804;51.176;4.452;2023-04-24T05:56:24;8.70;99.90
24686;DHT22;12804;51.176;4.452;2023-04-24T05:58:50;8.70;99.90
24686;DHT22;12804;51.176;4.452;2023-04-24T06:01:16;8.70;99.90
24686;DHT22;12804;51.176;4.452;2023-04-24T06:03:45;8.80;99.90
24686;DHT22;12804;51.176;4.452;2023-04-24T06:06:11;8.70;99.90
24686;DHT22;12804;51.176;4.452;2023-04-24T06:08:37;8.90;99.90
24686;DHT22;12804;51.176;4.452;2023-04-24T06:11:03;8.80;99.90
24686;DHT22;12804;51.176;4.452;2023-04-24T06:13:29;8.80;99.90
24686;DHT22;12804;51.176;4.452;2023-04-24T06:16:14;8.70;99.90
24686;DHT22;12804;51.176;4.452;2023-04-24T06:18:45;8.80;99.90
24686;DHT22;12804;51.176;4.452;2023-04-24T06:21:13;9.00;99.90
24686;DHT22;12804;51.176;4.452;2023-04-24T06:23:38;9.00;99.90
24686;DHT22;12804;51.176;4.452;2023-04-24T06:26:04;9.00;99.90
24686;DHT22;12804;51.176;4.452;2023-04-24T06:28:31;9.20;99.90
24686;DHT22;12804;51.176;4.452;2023-04-24T06:30:57;9.10;99.90
24686;DHT22;12804;51.176;4.452;2023-04-24T06:33:23;9.50;99.90
24686;DHT22;12804;51.176;4.452;2023-04-24T06:35:49;9.30;99.90
24686;DHT22;12804;51.176;4.452;2023-04-24T06:38:14;9.20;99.90
24686;DHT22;12804;51.176;4.452;2023-04-24T06:40:41;9.20;99.90
24686;DHT22;12804;51.176;4.452;2023-04-24T06:43:07;9.00;99.90
24686;DHT22;12804;51.176;4.452;2023-04-24T06:45:33;9.00;99.90
24686;DHT22;12804;51.176;4.452;2023-04-24T06:47:59;9.10;99.90
24686;DHT22;12804;51.176;4.452;2023-04-24T06:50:25;9.20;99.90
24686;DHT22;12804;51.176;4.452;2023-04-24T06:52:51;9.30;99.90
24686;DHT22;12804;51.176;4.452;2023-04-24T06:55:17;9.40;99.90
24686;DHT22;12804;51.176;4.452;2023-04-24T06:57:43;9.30;99.90
24686;DHT22;12804;51.176;4.452;2023-04-24T07:00:10;9.20;99.90
24686;DHT22;12804;51.176;4.452;2023-04-24T07:02:36;9.30;99.90
24686;DHT22;12804;51.176;4.452;2023-04-24T07:05:03;9.30;99.90
24686;DHT22;12804;51.176;4.452;2023-04-24T07:07:29;9.30;99.90
24686;DHT22;12804;51.176;4.452;2023-04-24T07:09:56;9.20;99.90
24686;DHT22;12804;51.176;4.452;2023-04-24T07:12:23;9.20;99.90
24686;DHT22;12804;51.176;4.452;2023-04-24T07:14:50;9.20;99.90
24686;DHT22;12804;51.176;4.452;2023-04-24T07:17:16;9.20;99.90
24686;DHT22;12804;51.176;4.452;2023-04-24T07:19:42;9.20;99.90
24686;DHT22;12804;51.176;4.452;2023-04-24T07:22:08;9.20;99.90
24686;DHT22;12804;51.176;4.452;2023-04-24T07:24:34;9.20;99.90
24686;DHT22;12804;51.176;4.452;2023-04-24T07:27:00;9.30;99.90
24686;DHT22;12804;51.176;4.452;2023-04-24T07:29:28;9.30;99.90
24686;DHT22;12804;51.176;4.452;2023-04-24T07:31:54;9.40;99.90
24686;DHT22;12804;51.176;4.452;2023-04-24T07:34:20;9.60;99.90
24686;DHT22;12804;51.176;4.452;2023-04-24T07:36:46;9.60;99.90
24686;DHT22;12804;51.176;4.452;2023-04-24T07:39:12;9.70;99.90
24686;DHT22;12804;51.176;4.452;2023-04-24T07:41:38;9.90;99.90
24686;DHT22;12804;51.176;4.452;2023-04-24T07:44:04;9.90;99.90
24686;DHT22;12804;51.176;4.452;2023-04-24T07:46:30;9.90;99.90
24686;DHT22;12804;51.176;4.452;2023-04-24T07:48:56;9.90;99.90
24686;DHT22;12804;51.176;4.452;2023-04-24T07:51:22;9.90;99.90
24686;DHT22;12804;51.176;4.452;2023-04-24T07:53:48;9.80;99.90
24686;DHT22;12804;51.176;4.452;2023-04-24T07:56:14;9.90;99.90
24686;DHT22;12804;51.176;4.452;2023-04-24T07:58:39;9.90;99.90
24686;DHT22;12804;51.176;4.452;2023-04-24T08:01:06;10.10;99.90
24686;DHT22;12804;51.176;4.452;2023-04-24T08:03:32;10.40;99.90
24686;DHT22;12804;51.176;4.452;2023-04-24T08:05:57;10.50;99.90
24686;DHT22;12804;51.176;4.452;2023-04-24T08:08:25;10.60;99.90
24686;DHT22;12804;51.176;4.452;2023-04-24T08:10:51;10.60;99.90
24686;DHT22;12804;51.176;4.452;2023-04-24T08:13:17;10.30;99.90
24686;DHT22;12804;51.176;4.452;2023-04-24T08:15:42;10.10;99.90
24686;DHT22;12804;51.176;4.452;2023-04-24T08:18:08;10.10;99.90
24686;DHT22;12804;51.176;4.452;2023-04-24T08:20:37;10.10;99.90
24686;DHT22;12804;51.176;4.452;2023-04-24T08:23:03;10.00;99.90
24686;DHT22;12804;51.176;4.452;2023-04-24T08:25:29;9.90;99.90
24686;DHT22;12804;51.176;4.452;2023-04-24T08:27:55;10.00;99.90
24686;DHT22;12804;51.176;4.452;2023-04-24T08:30:20;9.90;99.90
24686;DHT22;12804;51.176;4.452;2023-04-24T08:32:47;9.90;99.90
24686;DHT22;12804;51.176;4.452;2023-04-24T08:35:13;10.00;99.90
24686;DHT22;12804;51.176;4.452;2023-04-24T08:37:39;10.10;99.90
24686;DHT22;12804;51.176;4.452;2023-04-24T08:40:11;10.10;99.90
24686;DHT22;12804;51.176;4.452;2023-04-24T08:42:41;10.00;99.90
24686;DHT22;12804;51.176;4.452;2023-04-24T08:45:08;10.00;99.90
24686;DHT22;12804;51.176;4.452;2023-04-24T08:47:35;10.20;99.90
24686;DHT22;12804;51.176;4.452;2023-04-24T08:50:02;10.30;99.90
24686;DHT22;12804;51.176;4.452;2023-04-24T08:52:29;10.40;99.90
24686;DHT22;12804;51.176;4.452;2023-04-24T08:54:56;10.60;99.90
24686;DHT22;12804;51.176;4.452;2023-04-24T08:57:22;10.70;99.90
24686;DHT22;12804;51.176;4.452;2023-04-24T08:59:49;10.80;99.90
24686;DHT22;12804;51.176;4.452;2023-04-24T09:02:15;10.90;99.90
24686;DHT22;12804;51.176;4.452;2023-04-24T09:04:43;10.80;99.90
24686;DHT22;12804;51.176;4.452;2023-04-24T09:07:10;10.70;99.90
24686;DHT22;12804;51.176;4.452;2023-04-24T09:09:38;10.70;99.90
24686;DHT22;12804;51.176;4.452;2023-04-24T09:12:04;10.70;99.90
24686;DHT22;12804;51.176;4.452;2023-04-24T09:14:31;10.60;99.90
24686;DHT22;12804;51.176;4.452;2023-04-24T09:16:57;10.40;99.90
24686;DHT22;12804;51.176;4.452;2023-04-24T09:19:23;10.40;99.90
24686;DHT22;12804;51.176;4.452;2023-04-24T09:21:49;10.30;99.90
24686;DHT22;12804;51.176;4.452;2023-04-24T09:24:20;10.30;99.90
24686;DHT22;12804;51.176;4.452;2023-04-24T09:26:56;10.40;99.90
24686;DHT22;12804;51.176;4.452;2023-04-24T09:29:23;10.60;99.90
24686;DHT22;12804;51.176;4.452;2023-04-24T09:31:49;10.60;99.90
24686;DHT22;12804;51.176;4.452;2023-04-24T09:34:21;10.70;99.90
24686;DHT22;12804;51.176;4.452;2023-04-24T09:36:48;10.60;99.90
24686;DHT22;12804;51.176;4.452;2023-04-24T09:39:15;10.80;99.90
24686;DHT22;12804;51.176;4.452;2023-04-24T09:41:46;10.90;99.90
24686;DHT22;12804;51.176;4.452;2023-04-24T09:44:14;10.80;99.90
24686;DHT22;12804;51.176;4.452;2023-04-24T09:46:46;10.90;99.90
24686;DHT22;12804;51.176;4.452;2023-04-24T09:49:16;11.00;99.90
24686;DHT22;12804;51.176;4.452;2023-04-24T09:51:45;11.30;99.90
24686;DHT22;12804;51.176;4.452;2023-04-24T09:54:19;11.40;95.40
24686;DHT22;12804;51.176;4.452;2023-04-24T09:56:50;11.30;97.10
24686;DHT22;12804;51.176;4.452;2023-04-24T09:59:18;11.40;91.50
24686;DHT22;12804;51.176;4.452;2023-04-24T10:01:44;11.40;91.50
24686;DHT22;12804;51.176;4.452;2023-04-24T10:04:21;11.40;92.00
24686;DHT22;12804;51.176;4.452;2023-04-24T10:06:48;11.20;74.10
24686;DHT22;12804;51.176;4.452;2023-04-24T10:09:15;11.30;82.30
24686;DHT22;12804;51.176;4.452;2023-04-24T10:11:47;11.60;54.80
24686;DHT22;12804;51.176;4.452;2023-04-24T10:14:17;12.00;48.60
24686;DHT22;12804;51.176;4.452;2023-04-24T10:16:44;12.40;3.20
24686;DHT22;12804;51.176;4.452;2023-04-24T10:19:13;12.40;1.00
24686;DHT22;12804;51.176;4.452;2023-04-24T10:21:40;12.50;1.00
24686;DHT22;12804;51.176;4.452;2023-04-24T10:24:12;12.50;1.00
24686;DHT22;12804;51.176;4.452;2023-04-24T10:26:38;12.70;1.00
24686;DHT22;12804;51.176;4.452;2023-04-24T10:29:06;12.80;1.00
24686;DHT22;12804;51.176;4.452;2023-04-24T10:31:36;13.10;1.00
24686;DHT22;12804;51.176;4.452;2023-04-24T10:34:04;12.90;1.00
24686;DHT22;12804;51.176;4.452;2023-04-24T10:36:31;12.50;1.00
24686;DHT22;12804;51.176;4.452;2023-04-24T10:39:01;12.20;1.00
24686;DHT22;12804;51.176;4.452;2023-04-24T10:41:30;12.00;1.00
24686;DHT22;12804;51.176;4.452;2023-04-24T10:44:07;12.00;1.00
24686;DHT22;12804;51.176;4.452;2023-04-24T10:46:33;12.40;1.00
24686;DHT22;12804;51.176;4.452;2023-04-24T10:49:04;12.90;1.00
24686;DHT22;12804;51.176;4.452;2023-04-24T10:54:29;13.60;1.00
24686;DHT22;12804;51.176;4.452;2023-04-24T10:59:49;13.80;1.00
24686;DHT22;12804;51.176;4.452;2023-04-24T11:02:17;13.30;1.00
24686;DHT22;12804;51.176;4.452;2023-04-24T11:04:43;13.20;1.00
24686;DHT22;12804;51.176;4.452;2023-04-24T11:07:10;13.40;1.00
24686;DHT22;12804;51.176;4.452;2023-04-24T11:09:37;13.40;1.00
24686;DHT22;12804;51.176;4.452;2023-04-24T11:12:05;13.00;1.00
24686;DHT22;12804;51.176;4.452;2023-04-24T11:17:29;13.20;1.00
24686;DHT22;12804;51.176;4.452;2023-04-24T11:20:23;13.90;1.00
24686;DHT22;12804;51.176;4.452;2023-04-24T11:22:53;14.50;1.00
24686;DHT22;12804;51.176;4.452;2023-04-24T11:25:23;14.80;1.00
24686;DHT22;12804;51.176;4.452;2023-04-24T11:27:51;16.00;1.00
24686;DHT22;12804;51.176;4.452;2023-04-24T11:30:29;16.00;99.90
24686;DHT22;12804;51.176;4.452;2023-04-24T11:33:04;15.20;1.00
24686;DHT22;12804;51.176;4.452;2023-04-24T11:35:35;14.60;1.00
24686;DHT22;12804;51.176;4.452;2023-04-24T11:38:02;14.40;1.00
24686;DHT22;12804;51.176;4.452;2023-04-24T11:40:28;14.20;1.00
24686;DHT22;12804;51.176;4.452;2023-04-24T11:42:54;13.70;1.00
24686;DHT22;12804;51.176;4.452;2023-04-24T11:45:31;13.30;1.00
24686;DHT22;12804;51.176;4.452;2023-04-24T11:47:57;13.20;1.00
24686;DHT22;12804;51.176;4.452;2023-04-24T11:50:25;13.10;1.00
24686;DHT22;12804;51.176;4.452;2023-04-24T11:52:52;13.30;1.00
24686;DHT22;12804;51.176;4.452;2023-04-24T11:57:46;13.70;1.00
24686;DHT22;12804;51.176;4.452;2023-04-24T12:00:17;13.80;1.00
24686;DHT22;12804;51.176;4.452;2023-04-24T12:02:44;13.80;1.00
24686;DHT22;12804;51.176;4.452;2023-04-24T12:05:23;13.90;1.00
24686;DHT22;12804;51.176;4.452;2023-04-24T12:07:50;14.60;1.00
24686;DHT22;12804;51.176;4.452;2023-04-24T12:10:21;14.60;1.00
24686;DHT22;12804;51.176;4.452;2023-04-24T12:12:47;14.50;1.00
24686;DHT22;12804;51.176;4.452;2023-04-24T12:15:16;14.60;1.00
24686;DHT22;12804;51.176;4.452;2023-04-24T12:17:42;15.10;1.00
24686;DHT22;12804;51.176;4.452;2023-04-24T12:20:09;15.50;1.00
24686;DHT22;12804;51.176;4.452;2023-04-24T12:22:52;15.60;1.00
24686;DHT22;12804;51.176;4.452;2023-04-24T12:25:23;15.50;1.00
24686;DHT22;12804;51.176;4.452;2023-04-24T12:30:32;14.90;1.00
24686;DHT22;12804;51.176;4.452;2023-04-24T12:32:59;15.00;1.00
24686;DHT22;12804;51.176;4.452;2023-04-24T12:35:28;14.90;1.00
24686;DHT22;12804;51.176;4.452;2023-04-24T12:37:54;15.10;1.00
24686;DHT22;12804;51.176;4.452;2023-04-24T12:40:21;15.30;1.00
24686;DHT22;12804;51.176;4.452;2023-04-24T12:42:51;15.00;1.00
24686;DHT22;12804;51.176;4.452;2023-04-24T12:45:18;14.70;1.00
24686;DHT22;12804;51.176;4.452;2023-04-24T12:47:45;14.60;1.00
24686;DHT22;12804;51.176;4.452;2023-04-24T12:50:15;14.70;1.00
24686;DHT22;12804;51.176;4.452;2023-04-24T12:52:42;15.40;1.00
24686;DHT22;12804;51.176;4.452;2023-04-24T12:55:08;16.50;1.00
24686;DHT22;12804;51.176;4.452;2023-04-24T12:57:36;17.50;99.90
24686;DHT22;12804;51.176;4.452;2023-04-24T13:00:04;17.30;1.00
24686;DHT22;12804;51.176;4.452;2023-04-24T13:02:30;16.50;99.90
24686;DHT22;12804;51.176;4.452;2023-04-24T13:04:58;16.30;99.90
24686;DHT22;12804;51.176;4.452;2023-04-24T13:07:24;15.80;99.90
24686;DHT22;12804;51.176;4.452;2023-04-24T13:09:51;15.50;99.90
24686;DHT22;12804;51.176;4.452;2023-04-24T13:12:17;15.40;99.90
24686;DHT22;12804;51.176;4.452;2023-04-24T13:14:43;15.70;99.90
24686;DHT22;12804;51.176;4.452;2023-04-24T13:17:09;15.60;99.90
24686;DHT22;12804;51.176;4.452;2023-04-24T13:19:42;15.80;1.00
24686;DHT22;12804;51.176;4.452;2023-04-24T13:22:09;16.10;1.00
24686;DHT22;12804;51.176;4.452;2023-04-24T13:24:36;15.50;1.00
24686;DHT22;12804;51.176;4.452;2023-04-24T13:27:03;16.10;1.00
24686;DHT22;12804;51.176;4.452;2023-04-24T13:29:29;17.80;1.00
24686;DHT22;12804;51.176;4.452;2023-04-24T13:31:55;18.00;1.00
24686;DHT22;12804;51.176;4.452;2023-04-24T13:34:23;17.00;1.00
24686;DHT22;12804;51.176;4.452;2023-04-24T13:36:50;16.50;1.00
24686;DHT22;12804;51.176;4.452;2023-04-24T13:39:16;17.20;1.00
24686;DHT22;12804;51.176;4.452;2023-04-24T13:41:42;19.10;1.00
24686;DHT22;12804;51.176;4.452;2023-04-24T13:44:08;20.20;1.00
24686;DHT22;12804;51.176;4.452;2023-04-24T13:46:34;21.30;1.00
24686;DHT22;12804;51.176;4.452;2023-04-24T13:49:02;21.50;1.00
24686;DHT22;12804;51.176;4.452;2023-04-24T13:51:29;20.80;99.90
24686;DHT22;12804;51.176;4.452;2023-04-24T13:53:55;20.30;1.00
24686;DHT22;12804;51.176;4.452;2023-04-24T13:56:22;19.80;1.00
24686;DHT22;12804;51.176;4.452;2023-04-24T13:58:48;20.10;1.00
24686;DHT22;12804;51.176;4.452;2023-04-24T14:01:14;21.20;99.90
24686;DHT22;12804;51.176;4.452;2023-04-24T14:03:41;21.80;8.40
24686;DHT22;12804;51.176;4.452;2023-04-24T14:06:09;22.10;1.00
24686;DHT22;12804;51.176;4.452;2023-04-24T14:08:35;22.60;1.00
24686;DHT22;12804;51.176;4.452;2023-04-24T14:11:01;22.30;1.00
24686;DHT22;12804;51.176;4.452;2023-04-24T14:13:27;20.70;1.00
24686;DHT22;12804;51.176;4.452;2023-04-24T14:15:53;21.20;1.00
24686;DHT22;12804;51.176;4.452;2023-04-24T14:18:19;22.30;1.00
24686;DHT22;12804;51.176;4.452;2023-04-24T14:20:45;22.90;1.00
24686;DHT22;12804;51.176;4.452;2023-04-24T14:23:11;22.70;1.00
24686;DHT22;12804;51.176;4.452;2023-04-24T14:25:36;21.30;1.00
24686;DHT22;12804;51.176;4.452;2023-04-24T14:28:02;19.90;99.90
24686;DHT22;12804;51.176;4.452;2023-04-24T14:30:28;18.50;1.00
24686;DHT22;12804;51.176;4.452;2023-04-24T14:32:54;17.70;21.00
24686;DHT22;12804;51.176;4.452;2023-04-24T14:35:20;16.70;1.00
24686;DHT22;12804;51.176;4.452;2023-04-24T14:37:46;17.60;87.50
24686;DHT22;12804;51.176;4.452;2023-04-24T14:40:13;19.00;1.00
24686;DHT22;12804;51.176;4.452;2023-04-24T14:42:40;20.60;1.00
24686;DHT22;12804;51.176;4.452;2023-04-24T14:45:06;22.80;99.90
24686;DHT22;12804;51.176;4.452;2023-04-24T14:47:33;22.90;1.00
24686;DHT22;12804;51.176;4.452;2023-04-24T14:49:59;21.60;1.00
24686;DHT22;12804;51.176;4.452;2023-04-24T14:52:25;19.40;99.90
24686;DHT22;12804;51.176;4.452;2023-04-24T14:54:51;18.70;99.90
24686;DHT22;12804;51.176;4.452;2023-04-24T14:57:17;18.70;99.90
24686;DHT22;12804;51.176;4.452;2023-04-24T14:59:43;19.10;99.90
24686;DHT22;12804;51.176;4.452;2023-04-24T15:02:08;19.60;99.90
24686;DHT22;12804;51.176;4.452;2023-04-24T15:04:34;19.10;99.90
24686;DHT22;12804;51.176;4.452;2023-04-24T15:07:00;18.30;99.90
24686;DHT22;12804;51.176;4.452;2023-04-24T15:09:26;17.60;99.90
24686;DHT22;12804;51.176;4.452;2023-04-24T15:11:52;17.10;1.00
24686;DHT22;12804;51.176;4.452;2023-04-24T15:14:18;17.90;1.00
24686;DHT22;12804;51.176;4.452;2023-04-24T15:16:44;19.40;1.00
24686;DHT22;12804;51.176;4.452;2023-04-24T15:19:10;20.30;99.90
24686;DHT22;12804;51.176;4.452;2023-04-24T15:21:37;20.70;99.90
24686;DHT22;12804;51.176;4.452;2023-04-24T15:24:04;20.50;1.00
24686;DHT22;12804;51.176;4.452;2023-04-24T15:26:30;20.50;1.00
24686;DHT22;12804;51.176;4.452;2023-04-24T15:28:56;19.90;1.00
24686;DHT22;12804;51.176;4.452;2023-04-24T15:31:22;18.70;1.00
24686;DHT22;12804;51.176;4.452;2023-04-24T15:33:49;17.70;1.00
24686;DHT22;12804;51.176;4.452;2023-04-24T15:36:15;17.00;83.10
24686;DHT22;12804;51.176;4.452;2023-04-24T15:38:43;16.40;99.90
24686;DHT22;12804;51.176;4.452;2023-04-24T15:41:09;15.70;1.00
24686;DHT22;12804;51.176;4.452;2023-04-24T15:43:35;16.00;1.00
24686;DHT22;12804;51.176;4.452;2023-04-24T15:46:01;16.20;99.90
24686;DHT22;12804;51.176;4.452;2023-04-24T15:48:28;16.50;1.00
24686;DHT22;12804;51.176;4.452;2023-04-24T15:50:54;16.70;79.80
24686;DHT22;12804;51.176;4.452;2023-04-24T15:53:20;16.40;1.00
24686;DHT22;12804;51.176;4.452;2023-04-24T15:55:49;15.80;1.00
24686;DHT22;12804;51.176;4.452;2023-04-24T15:58:16;15.70;1.00